sensor_id;sensor_type;location;lat;lon;timestamp;temperature;humidity
43671;DHT22;29267;50.906;7.248;2023-06-04T00:02:16;13.00;74.40
43671;DHT22;29267;50.906;7.248;2023-06-04T00:04:42;13.10;73.90
43671;DHT22;29267;50.906;7.248;2023-06-04T00:07:07;13.10;74.80
43671;DHT22;29267;50.906;7.248;2023-06-04T00:09:33;13.10;74.10
43671;DHT22;29267;50.906;7.248;2023-06-04T00:11:59;13.10;73.90
43671;DHT22;29267;50.906;7.248;2023-06-04T00:14:24;13.00;74.10
43671;DHT22;29267;50.906;7.248;2023-06-04T00:16:50;13.10;74.10
43671;DHT22;29267;50.906;7.248;2023-06-04T00:19:16;13.00;74.20
43671;DHT22;29267;50.906;7.248;2023-06-04T00:21:41;13.00;73.90
43671;DHT22;29267;50.906;7.248;2023-06-04T00:24:07;13.00;74.30
43671;DHT22;29267;50.906;7.248;2023-06-04T00:26:33;13.00;74.20
43671;DHT22;29267;50.906;7.248;2023-06-04T00:28:58;12.90;74.70
43671;DHT22;29267;50.906;7.248;2023-06-04T00:31:24;12.90;74.90
43671;DHT22;29267;50.906;7.248;2023-06-04T00:33:50;12.80;75.20
43671;DHT22;29267;50.906;7.248;2023-06-04T00:36:16;12.80;75.20
43671;DHT22;29267;50.906;7.248;2023-06-04T00:38:41;12.70;75.50
43671;DHT22;29267;50.906;7.248;2023-06-04T00:41:07;12.70;75.60
43671;DHT22;29267;50.906;7.248;2023-06-04T00:43:33;12.60;75.80
43671;DHT22;29267;50.906;7.248;2023-06-04T00:45:59;12.60;76.00
43671;DHT22;29267;50.906;7.248;2023-06-04T00:48:25;12.60;75.70
43671;DHT22;29267;50.906;7.248;2023-06-04T00:50:54;12.60;75.70
43671;DHT22;29267;50.906;7.248;2023-06-04T00:53:21;12.60;75.50
43671;DHT22;29267;50.906;7.248;2023-06-04T00:55:48;12.60;75.90
43671;DHT22;29267;50.906;7.248;2023-06-04T00:58:13;12.60;75.50
43671;DHT22;29267;50.906;7.248;2023-06-04T01:00:41;12.70;75.20
43671;DHT22;29267;50.906;7.248;2023-06-04T01:03:14;12.70;75.00
43671;DHT22;29267;50.906;7.248;2023-06-04T01:08:07;12.80;74.80
43671;DHT22;29267;50.906;7.248;2023-06-04T01:10:35;12.80;74.50
43671;DHT22;29267;50.906;7.248;2023-06-04T01:13:01;12.80;74.90
43671;DHT22;29267;50.906;7.248;2023-06-04T01:15:27;12.80;75.30
43671;DHT22;29267;50.906;7.248;2023-06-04T01:17:58;12.70;75.80
43671;DHT22;29267;50.906;7.248;2023-06-04T01:20:43;12.60;76.80
43671;DHT22;29267;50.906;7.248;2023-06-04T01:26:27;12.30;77.30
43671;DHT22;29267;50.906;7.248;2023-06-04T01:28:55;12.20;78.90
43671;DHT22;29267;50.906;7.248;2023-06-04T01:31:21;12.10;79.20
43671;DHT22;29267;50.906;7.248;2023-06-04T01:33:57;12.10;78.90
43671;DHT22;29267;50.906;7.248;2023-06-04T01:36:25;12.00;79.80
43671;DHT22;29267;50.906;7.248;2023-06-04T01:38:51;11.90;80.00
43671;DHT22;29267;50.906;7.248;2023-06-04T01:41:17;11.80;80.60
43671;DHT22;29267;50.906;7.248;2023-06-04T01:43:43;11.80;81.00
43671;DHT22;29267;50.906;7.248;2023-06-04T01:46:09;11.70;81.40
43671;DHT22;29267;50.906;7.248;2023-06-04T01:48:34;11.60;81.50
43671;DHT22;29267;50.906;7.248;2023-06-04T01:51:00;11.60;81.80
43671;DHT22;29267;50.906;7.248;2023-06-04T01:53:26;11.50;81.60
43671;DHT22;29267;50.906;7.248;2023-06-04T01:55:52;11.50;80.70
43671;DHT22;29267;50.906;7.248;2023-06-04T01:58:18;11.60;80.60
43671;DHT22;29267;50.906;7.248;2023-06-04T02:00:49;11.60;80.20
43671;DHT22;29267;50.906;7.248;2023-06-04T02:03:15;11.60;80.80
43671;DHT22;29267;50.906;7.248;2023-06-04T02:05:40;11.60;81.60
43671;DHT22;29267;50.906;7.248;2023-06-04T02:08:06;11.50;81.50
43671;DHT22;29267;50.906;7.248;2023-06-04T02:10:32;11.50;81.20
43671;DHT22;29267;50.906;7.248;2023-06-04T02:12:59;11.50;81.30
43671;DHT22;29267;50.906;7.248;2023-06-04T02:15:26;11.50;81.40
43671;DHT22;29267;50.906;7.248;2023-06-04T02:17:56;11.50;81.60
43671;DHT22;29267;50.906;7.248;2023-06-04T02:20:27;11.50;82.20
43671;DHT22;29267;50.906;7.248;2023-06-04T02:22:56;11.40;82.90
43671;DHT22;29267;50.906;7.248;2023-06-04T02:25:23;11.30;83.60
43671;DHT22;29267;50.906;7.248;2023-06-04T02:27:49;11.20;83.20
43671;DHT22;29267;50.906;7.248;2023-06-04T02:30:15;11.20;83.90
43671;DHT22;29267;50.906;7.248;2023-06-04T02:32:42;11.10;84.50
43671;DHT22;29267;50.906;7.248;2023-06-04T02:35:10;11.10;84.80
43671;DHT22;29267;50.906;7.248;2023-06-04T02:37:35;11.00;85.40
43671;DHT22;29267;50.906;7.248;2023-06-04T02:40:01;10.90;85.50
43671;DHT22;29267;50.906;7.248;2023-06-04T02:42:28;10.90;86.10
43671;DHT22;29267;50.906;7.248;2023-06-04T02:44:53;10.80;86.60
43671;DHT22;29267;50.906;7.248;2023-06-04T02:47:19;10.70;87.20
43671;DHT22;29267;50.906;7.248;2023-06-04T02:49:45;10.60;87.40
43671;DHT22;29267;50.906;7.248;2023-06-04T02:52:12;10.60;87.70
43671;DHT22;29267;50.906;7.248;2023-06-04T02:54:38;10.50;88.10
43671;DHT22;29267;50.906;7.248;2023-06-04T02:57:04;10.50;88.00
43671;DHT22;29267;50.906;7.248;2023-06-04T02:59:29;10.50;88.10
43671;DHT22;29267;50.906;7.248;2023-06-04T03:01:55;10.50;88.30
43671;DHT22;29267;50.906;7.248;2023-06-04T03:04:21;10.50;88.50
43671;DHT22;29267;50.906;7.248;2023-06-04T03:06:46;10.40;88.70
43671;DHT22;29267;50.906;7.248;2023-06-04T03:09:12;10.40;89.00
43671;DHT22;29267;50.906;7.248;2023-06-04T03:11:38;10.40;89.20
43671;DHT22;29267;50.906;7.248;2023-06-04T03:14:04;10.40;88.80
43671;DHT22;29267;50.906;7.248;2023-06-04T03:16:29;10.40;88.20
43671;DHT22;29267;50.906;7.248;2023-06-04T03:18:55;10.50;88.00
43671;DHT22;29267;50.906;7.248;2023-06-04T03:21:22;10.50;87.70
43671;DHT22;29267;50.906;7.248;2023-06-04T03:23:47;10.60;87.30
43671;DHT22;29267;50.906;7.248;2023-06-04T03:26:13;10.60;87.70
43671;DHT22;29267;50.906;7.248;2023-06-04T03:28:39;10.60;88.40
43671;DHT22;29267;50.906;7.248;2023-06-04T03:31:05;10.50;90.00
43671;DHT22;29267;50.906;7.248;2023-06-04T03:33:31;10.50;90.40
43671;DHT22;29267;50.906;7.248;2023-06-04T03:35:56;10.30;90.30
43671;DHT22;29267;50.906;7.248;2023-06-04T03:38:28;10.30;90.20
43671;DHT22;29267;50.906;7.248;2023-06-04T03:40:53;10.30;90.30
43671;DHT22;29267;50.906;7.248;2023-06-04T03:43:20;10.30;90.50
43671;DHT22;29267;50.906;7.248;2023-06-04T03:45:46;10.30;90.30
43671;DHT22;29267;50.906;7.248;2023-06-04T03:48:11;10.30;90.40
43671;DHT22;29267;50.906;7.248;2023-06-04T03:50:37;10.30;90.40
43671;DHT22;29267;50.906;7.248;2023-06-04T03:53:03;10.40;90.30
43671;DHT22;29267;50.906;7.248;2023-06-04T03:55:31;10.40;90.60
43671;DHT22;29267;50.906;7.248;2023-06-04T03:57:59;10.40;90.50
43671;DHT22;29267;50.906;7.248;2023-06-04T04:00:26;10.40;90.70
43671;DHT22;29267;50.906;7.248;2023-06-04T04:02:51;10.40;90.30
43671;DHT22;29267;50.906;7.248;2023-06-04T04:05:17;10.50;90.70
43671;DHT22;29267;50.906;7.248;2023-06-04T04:07:42;10.50;90.40
43671;DHT22;29267;50.906;7.248;2023-06-04T04:10:08;10.60;89.90
43671;DHT22;29267;50.906;7.248;2023-06-04T04:12:35;10.70;90.20
43671;DHT22;29267;50.906;7.248;2023-06-04T04:15:01;10.70;91.80
43671;DHT22;29267;50.906;7.248;2023-06-04T04:17:26;10.60;92.00
43671;DHT22;29267;50.906;7.248;2023-06-04T04:19:52;10.60;91.70
43671;DHT22;29267;50.906;7.248;2023-06-04T04:22:17;10.60;91.40
43671;DHT22;29267;50.906;7.248;2023-06-04T04:24:43;10.60;91.70
43671;DHT22;29267;50.906;7.248;2023-06-04T04:27:10;10.70;91.60
43671;DHT22;29267;50.906;7.248;2023-06-04T04:29:39;10.70;92.00
43671;DHT22;29267;50.906;7.248;2023-06-04T04:32:04;10.90;91.90
43671;DHT22;29267;50.906;7.248;2023-06-04T04:34:37;12.00;90.50
43671;DHT22;29267;50.906;7.248;2023-06-04T04:37:05;13.70;84.90
43671;DHT22;29267;50.906;7.248;2023-06-04T04:39:34;15.40;76.90
43671;DHT22;29267;50.906;7.248;2023-06-04T04:42:00;16.80;75.40
43671;DHT22;29267;50.906;7.248;2023-06-04T04:44:25;18.20;69.30
43671;DHT22;29267;50.906;7.248;2023-06-04T04:46:51;19.00;66.00
43671;DHT22;29267;50.906;7.248;2023-06-04T04:49:17;19.70;64.90
43671;DHT22;29267;50.906;7.248;2023-06-04T04:51:42;20.30;65.10
43671;DHT22;29267;50.906;7.248;2023-06-04T04:54:08;20.60;63.00
43671;DHT22;29267;50.906;7.248;2023-06-04T04:56:34;21.70;60.90
43671;DHT22;29267;50.906;7.248;2023-06-04T04:59:02;22.40;60.20
43671;DHT22;29267;50.906;7.248;2023-06-04T05:01:27;23.00;58.60
43671;DHT22;29267;50.906;7.248;2023-06-04T05:03:53;23.20;57.40
43671;DHT22;29267;50.906;7.248;2023-06-04T05:06:19;23.50;57.20
43671;DHT22;29267;50.906;7.248;2023-06-04T05:08:45;23.40;57.50
43671;DHT22;29267;50.906;7.248;2023-06-04T05:11:10;23.80;57.90
43671;DHT22;29267;50.906;7.248;2023-06-04T05:13:36;24.00;56.80
43671;DHT22;29267;50.906;7.248;2023-06-04T05:16:02;24.20;56.90
43671;DHT22;29267;50.906;7.248;2023-06-04T05:18:37;24.40;55.30
43671;DHT22;29267;50.906;7.248;2023-06-04T05:21:06;23.90;56.80
43671;DHT22;29267;50.906;7.248;2023-06-04T05:23:32;24.20;57.10
43671;DHT22;29267;50.906;7.248;2023-06-04T05:26:00;24.70;56.40
43671;DHT22;29267;50.906;7.248;2023-06-04T05:28:27;25.40;55.20
43671;DHT22;29267;50.906;7.248;2023-06-04T05:30:53;25.90;53.90
43671;DHT22;29267;50.906;7.248;2023-06-04T05:33:24;26.40;54.00
43671;DHT22;29267;50.906;7.248;2023-06-04T05:35:50;25.90;55.70
43671;DHT22;29267;50.906;7.248;2023-06-04T05:38:18;25.70;55.60
43671;DHT22;29267;50.906;7.248;2023-06-04T05:40:51;25.90;56.00
43671;DHT22;29267;50.906;7.248;2023-06-04T05:43:17;26.00;55.70
43671;DHT22;29267;50.906;7.248;2023-06-04T05:45:43;25.70;56.40
43671;DHT22;29267;50.906;7.248;2023-06-04T05:48:09;25.90;56.20
43671;DHT22;29267;50.906;7.248;2023-06-04T05:50:35;26.10;56.30
43671;DHT22;29267;50.906;7.248;2023-06-04T05:53:00;26.80;53.30
43671;DHT22;29267;50.906;7.248;2023-06-04T05:55:26;26.80;53.60
43671;DHT22;29267;50.906;7.248;2023-06-04T05:57:53;27.10;54.10
43671;DHT22;29267;50.906;7.248;2023-06-04T06:00:19;26.60;55.30
43671;DHT22;29267;50.906;7.248;2023-06-04T06:02:45;26.80;53.60
43671;DHT22;29267;50.906;7.248;2023-06-04T06:05:14;26.90;53.90
43671;DHT22;29267;50.906;7.248;2023-06-04T06:07:40;27.00;52.60
43671;DHT22;29267;50.906;7.248;2023-06-04T06:10:06;27.00;53.90
43671;DHT22;29267;50.906;7.248;2023-06-04T06:12:32;27.50;53.20
43671;DHT22;29267;50.906;7.248;2023-06-04T06:14:58;27.30;52.30
43671;DHT22;29267;50.906;7.248;2023-06-04T06:17:23;28.40;52.70
43671;DHT22;29267;50.906;7.248;2023-06-04T06:19:49;28.80;51.60
43671;DHT22;29267;50.906;7.248;2023-06-04T06:22:15;29.00;52.50
43671;DHT22;29267;50.906;7.248;2023-06-04T06:24:40;28.70;51.70
43671;DHT22;29267;50.906;7.248;2023-06-04T06:27:06;29.10;51.50
43671;DHT22;29267;50.906;7.248;2023-06-04T06:29:32;29.80;51.50
43671;DHT22;29267;50.906;7.248;2023-06-04T06:31:58;29.80;50.60
43671;DHT22;29267;50.906;7.248;2023-06-04T06:34:24;28.80;50.30
43671;DHT22;29267;50.906;7.248;2023-06-04T06:36:50;28.80;51.30
43671;DHT22;29267;50.906;7.248;2023-06-04T06:39:16;29.70;50.90
43671;DHT22;29267;50.906;7.248;2023-06-04T06:41:42;30.30;50.40
43671;DHT22;29267;50.906;7.248;2023-06-04T06:44:07;30.50;49.60
43671;DHT22;29267;50.906;7.248;2023-06-04T06:46:33;30.80;50.60
43671;DHT22;29267;50.906;7.248;2023-06-04T06:48:59;30.20;49.70
43671;DHT22;29267;50.906;7.248;2023-06-04T06:51:25;30.90;49.70
43671;DHT22;29267;50.906;7.248;2023-06-04T06:53:50;31.50;48.70
43671;DHT22;29267;50.906;7.248;2023-06-04T06:56:17;30.50;50.60
43671;DHT22;29267;50.906;7.248;2023-06-04T06:58:44;30.60;49.50
43671;DHT22;29267;50.906;7.248;2023-06-04T07:01:10;29.60;50.50
43671;DHT22;29267;50.906;7.248;2023-06-04T07:03:36;30.10;49.90
43671;DHT22;29267;50.906;7.248;2023-06-04T07:06:03;30.50;50.70
43671;DHT22;29267;50.906;7.248;2023-06-04T07:08:29;30.70;50.00
43671;DHT22;29267;50.906;7.248;2023-06-04T07:10:54;30.70;49.00
43671;DHT22;29267;50.906;7.248;2023-06-04T07:13:20;32.30;49.20
43671;DHT22;29267;50.906;7.248;2023-06-04T07:15:46;32.20;49.00
43671;DHT22;29267;50.906;7.248;2023-06-04T07:18:11;32.10;49.20
43671;DHT22;29267;50.906;7.248;2023-06-04T07:20:37;32.30;47.20
43671;DHT22;29267;50.906;7.248;2023-06-04T07:23:03;31.60;49.00
43671;DHT22;29267;50.906;7.248;2023-06-04T07:25:28;32.20;47.00
43671;DHT22;29267;50.906;7.248;2023-06-04T07:27:54;32.20;47.70
43671;DHT22;29267;50.906;7.248;2023-06-04T07:30:26;33.30;45.60
43671;DHT22;29267;50.906;7.248;2023-06-04T07:32:52;32.30;46.30
43671;DHT22;29267;50.906;7.248;2023-06-04T07:35:17;33.30;47.00
43671;DHT22;29267;50.906;7.248;2023-06-04T07:37:43;32.90;46.20
43671;DHT22;29267;50.906;7.248;2023-06-04T07:40:14;32.90;46.40
43671;DHT22;29267;50.906;7.248;2023-06-04T07:42:41;33.20;46.20
43671;DHT22;29267;50.906;7.248;2023-06-04T07:45:08;33.50;44.00
43671;DHT22;29267;50.906;7.248;2023-06-04T07:47:35;33.90;44.50
43671;DHT22;29267;50.906;7.248;2023-06-04T07:50:02;33.60;43.90
43671;DHT22;29267;50.906;7.248;2023-06-04T07:52:28;33.40;44.40
43671;DHT22;29267;50.906;7.248;2023-06-04T07:54:53;32.90;46.20
43671;DHT22;29267;50.906;7.248;2023-06-04T07:57:19;33.20;46.60
43671;DHT22;29267;50.906;7.248;2023-06-04T07:59:44;32.70;44.50
43671;DHT22;29267;50.906;7.248;2023-06-04T08:02:10;32.70;45.20
43671;DHT22;29267;50.906;7.248;2023-06-04T08:04:36;32.90;45.60
43671;DHT22;29267;50.906;7.248;2023-06-04T08:07:01;33.50;45.70
43671;DHT22;29267;50.906;7.248;2023-06-04T08:09:27;33.10;42.90
43671;DHT22;29267;50.906;7.248;2023-06-04T08:11:53;32.90;42.70
43671;DHT22;29267;50.906;7.248;2023-06-04T08:14:18;33.30;41.90
43671;DHT22;29267;50.906;7.248;2023-06-04T08:16:47;33.20;42.70
43671;DHT22;29267;50.906;7.248;2023-06-04T08:19:12;32.90;42.80
43671;DHT22;29267;50.906;7.248;2023-06-04T08:21:39;32.70;40.90
43671;DHT22;29267;50.906;7.248;2023-06-04T08:24:07;32.50;43.40
43671;DHT22;29267;50.906;7.248;2023-06-04T08:26:33;32.10;42.10
43671;DHT22;29267;50.906;7.248;2023-06-04T08:29:02;32.40;42.50
43671;DHT22;29267;50.906;7.248;2023-06-04T08:31:29;31.80;43.60
43671;DHT22;29267;50.906;7.248;2023-06-04T08:33:54;31.90;43.20
43671;DHT22;29267;50.906;7.248;2023-06-04T08:36:20;32.20;41.50
43671;DHT22;29267;50.906;7.248;2023-06-04T08:38:46;32.50;42.50
43671;DHT22;29267;50.906;7.248;2023-06-04T08:41:20;31.50;42.50
43671;DHT22;29267;50.906;7.248;2023-06-04T08:43:50;32.10;42.60
43671;DHT22;29267;50.906;7.248;2023-06-04T08:46:17;32.60;42.40
43671;DHT22;29267;50.906;7.248;2023-06-04T08:48:44;32.00;42.60
43671;DHT22;29267;50.906;7.248;2023-06-04T08:51:10;31.50;42.20
43671;DHT22;29267;50.906;7.248;2023-06-04T08:53:36;31.80;42.10
43671;DHT22;29267;50.906;7.248;2023-06-04T08:56:03;32.70;43.10
43671;DHT22;29267;50.906;7.248;2023-06-04T08:58:32;32.60;41.90
43671;DHT22;29267;50.906;7.248;2023-06-04T09:01:00;32.40;42.30
43671;DHT22;29267;50.906;7.248;2023-06-04T09:03:26;32.10;43.20
43671;DHT22;29267;50.906;7.248;2023-06-04T09:05:52;31.90;42.70
43671;DHT22;29267;50.906;7.248;2023-06-04T09:08:19;32.70;43.20
43671;DHT22;29267;50.906;7.248;2023-06-04T09:10:46;32.70;42.20
43671;DHT22;29267;50.906;7.248;2023-06-04T09:13:17;32.70;41.20
43671;DHT22;29267;50.906;7.248;2023-06-04T09:15:44;32.70;41.00
43671;DHT22;29267;50.906;7.248;2023-06-04T09:18:11;33.00;41.80
43671;DHT22;29267;50.906;7.248;2023-06-04T09:20:37;32.40;41.50
43671;DHT22;29267;50.906;7.248;2023-06-04T09:23:13;32.40;41.30
43671;DHT22;29267;50.906;7.248;2023-06-04T09:25:42;33.30;42.90
43671;DHT22;29267;50.906;7.248;2023-06-04T09:28:08;33.30;40.60
43671;DHT22;29267;50.906;7.248;2023-06-04T09:30:34;32.70;42.10
43671;DHT22;29267;50.906;7.248;2023-06-04T09:33:07;33.10;41.80
43671;DHT22;29267;50.906;7.248;2023-06-04T09:35:33;33.10;41.40
43671;DHT22;29267;50.906;7.248;2023-06-04T09:37:58;32.40;40.00
43671;DHT22;29267;50.906;7.248;2023-06-04T09:40:24;31.50;42.10
43671;DHT22;29267;50.906;7.248;2023-06-04T09:42:51;31.80;42.50
43671;DHT22;29267;50.906;7.248;2023-06-04T09:45:49;31.70;40.90
43671;DHT22;29267;50.906;7.248;2023-06-04T09:48:21;31.90;41.00
43671;DHT22;29267;50.906;7.248;2023-06-04T09:50:47;32.00;41.00
43671;DHT22;29267;50.906;7.248;2023-06-04T09:53:20;31.00;42.50
43671;DHT22;29267;50.906;7.248;2023-06-04T09:55:58;31.10;43.90
43671;DHT22;29267;50.906;7.248;2023-06-04T09:58:28;31.10;41.20
43671;DHT22;29267;50.906;7.248;2023-06-04T10:00:58;31.20;41.80
43671;DHT22;29267;50.906;7.248;2023-06-04T10:03:24;31.20;42.10
43671;DHT22;29267;50.906;7.248;2023-06-04T10:05:54;31.50;41.70
43671;DHT22;29267;50.906;7.248;2023-06-04T10:08:22;30.80;41.60
43671;DHT22;29267;50.906;7.248;2023-06-04T10:10:50;30.30;42.20
43671;DHT22;29267;50.906;7.248;2023-06-04T10:13:18;29.80;42.30
43671;DHT22;29267;50.906;7.248;2023-06-04T10:15:46;29.20;43.60
43671;DHT22;29267;50.906;7.248;2023-06-04T10:18:13;29.00;42.00
43671;DHT22;29267;50.906;7.248;2023-06-04T10:20:40;28.80;41.50
43671;DHT22;29267;50.906;7.248;2023-06-04T10:23:06;28.40;43.00
43671;DHT22;29267;50.906;7.248;2023-06-04T10:25:34;28.10;43.20
43671;DHT22;29267;50.906;7.248;2023-06-04T10:28:01;27.60;42.40
43671;DHT22;29267;50.906;7.248;2023-06-04T10:30:27;26.80;44.00
43671;DHT22;29267;50.906;7.248;2023-06-04T10:32:53;26.70;44.80
43671;DHT22;29267;50.906;7.248;2023-06-04T10:35:30;26.50;44.10
43671;DHT22;29267;50.906;7.248;2023-06-04T10:38:09;26.70;44.00
43671;DHT22;29267;50.906;7.248;2023-06-04T10:40:36;26.60;45.50
43671;DHT22;29267;50.906;7.248;2023-06-04T10:43:12;26.60;43.60
43671;DHT22;29267;50.906;7.248;2023-06-04T10:45:39;26.70;42.00
43671;DHT22;29267;50.906;7.248;2023-06-04T10:48:07;26.50;42.00
43671;DHT22;29267;50.906;7.248;2023-06-04T10:50:33;26.30;43.70
43671;DHT22;29267;50.906;7.248;2023-06-04T10:53:00;26.00;42.20
43671;DHT22;29267;50.906;7.248;2023-06-04T10:55:29;25.80;42.70
43671;DHT22;29267;50.906;7.248;2023-06-04T10:57:57;26.10;43.60
43671;DHT22;29267;50.906;7.248;2023-06-04T11:00:34;26.10;43.80
43671;DHT22;29267;50.906;7.248;2023-06-04T11:02:59;26.30;44.70
43671;DHT22;29267;50.906;7.248;2023-06-04T11:05:39;26.50;44.70
43671;DHT22;29267;50.906;7.248;2023-06-04T11:08:06;26.30;44.60
43671;DHT22;29267;50.906;7.248;2023-06-04T11:10:36;26.20;42.00
43671;DHT22;29267;50.906;7.248;2023-06-04T11:13:03;26.00;43.20
43671;DHT22;29267;50.906;7.248;2023-06-04T11:15:42;25.90;45.30
43671;DHT22;29267;50.906;7.248;2023-06-04T11:18:13;25.90;43.80
43671;DHT22;29267;50.906;7.248;2023-06-04T11:20:38;25.90;45.30
43671;DHT22;29267;50.906;7.248;2023-06-04T11:23:04;25.80;43.90
43671;DHT22;29267;50.906;7.248;2023-06-04T11:25:31;25.90;44.90
43671;DHT22;29267;50.906;7.248;2023-06-04T11:27:58;26.00;45.40
43671;DHT22;29267;50.906;7.248;2023-06-04T11:30:25;25.90;44.50
43671;DHT22;29267;50.906;7.248;2023-06-04T11:33:03;25.90;43.40
43671;DHT22;29267;50.906;7.248;2023-06-04T11:35:29;25.60;43.40
43671;DHT22;29267;50.906;7.248;2023-06-04T11:37:56;25.50;43.90
43671;DHT22;29267;50.906;7.248;2023-06-04T11:40:22;25.60;44.40
43671;DHT22;29267;50.906;7.248;2023-06-04T11:42:49;25.50;44.50
43671;DHT22;29267;50.906;7.248;2023-06-04T11:45:16;25.40;43.80
43671;DHT22;29267;50.906;7.248;2023-06-04T11:47:53;25.40;43.60
43671;DHT22;29267;50.906;7.248;2023-06-04T11:50:19;25.30;44.00
43671;DHT22;29267;50.906;7.248;2023-06-04T11:52:47;25.20;46.30
43671;DHT22;29267;50.906;7.248;2023-06-04T11:55:14;25.40;48.70
43671;DHT22;29267;50.906;7.248;2023-06-04T11:57:40;25.40;44.50
43671;DHT22;29267;50.906;7.248;2023-06-04T12:00:07;25.40;44.40
43671;DHT22;29267;50.906;7.248;2023-06-04T12:02:56;25.40;44.70
43671;DHT22;29267;50.906;7.248;2023-06-04T12:05:23;25.40;45.80
43671;DHT22;29267;50.906;7.248;2023-06-04T12:08:07;25.30;44.60
43671;DHT22;29267;50.906;7.248;2023-06-04T12:10:43;25.20;44.40
43671;DHT22;29267;50.906;7.248;2023-06-04T12:13:09;25.20;45.80
43671;DHT22;29267;50.906;7.248;2023-06-04T12:15:35;25.30;45.60
43671;DHT22;29267;50.906;7.248;2023-06-04T12:18:01;25.30;45.10
43671;DHT22;29267;50.906;7.248;2023-06-04T12:20:34;25.10;49.30
43671;DHT22;29267;50.906;7.248;2023-06-04T12:23:00;25.10;46.30
43671;DHT22;29267;50.906;7.248;2023-06-04T12:25:27;25.30;46.90
43671;DHT22;29267;50.906;7.248;2023-06-04T12:27:53;25.20;45.40
43671;DHT22;29267;50.906;7.248;2023-06-04T12:30:19;25.20;45.90
43671;DHT22;29267;50.906;7.248;2023-06-04T12:32:44;25.00;46.50
43671;DHT22;29267;50.906;7.248;2023-06-04T12:35:11;25.00;47.50
43671;DHT22;29267;50.906;7.248;2023-06-04T12:37:36;24.70;46.20
43671;DHT22;29267;50.906;7.248;2023-06-04T12:40:02;24.70;47.10
43671;DHT22;29267;50.906;7.248;2023-06-04T12:42:29;24.90;48.00
43671;DHT22;29267;50.906;7.248;2023-06-04T12:44:55;25.10;48.00
43671;DHT22;29267;50.906;7.248;2023-06-04T12:47:21;25.00;45.30
43671;DHT22;29267;50.906;7.248;2023-06-04T12:49:47;24.80;46.80
43671;DHT22;29267;50.906;7.248;2023-06-04T12:52:13;24.90;46.90
43671;DHT22;29267;50.906;7.248;2023-06-04T12:54:42;25.00;46.20
43671;DHT22;29267;50.906;7.248;2023-06-04T12:57:08;24.90;46.10
43671;DHT22;29267;50.906;7.248;2023-06-04T12:59:33;25.00;46.90
43671;DHT22;29267;50.906;7.248;2023-06-04T13:01:59;25.00;47.70
43671;DHT22;29267;50.906;7.248;2023-06-04T13:04:24;25.00;47.00
43671;DHT22;29267;50.906;7.248;2023-06-04T13:06:50;24.90;46.30
43671;DHT22;29267;50.906;7.248;2023-06-04T13:09:18;25.00;47.80
43671;DHT22;29267;50.906;7.248;2023-06-04T13:11:45;25.10;47.80
43671;DHT22;29267;50.906;7.248;2023-06-04T13:14:11;25.30;49.90
43671;DHT22;29267;50.906;7.248;2023-06-04T13:16:40;25.30;48.10
43671;DHT22;29267;50.906;7.248;2023-06-04T13:19:06;25.30;47.20
43671;DHT22;29267;50.906;7.248;2023-06-04T13:21:33;25.00;45.90
43671;DHT22;29267;50.906;7.248;2023-06-04T13:23:58;24.80;46.50
43671;DHT22;29267;50.906;7.248;2023-06-04T13:26:24;24.70;47.30
43671;DHT22;29267;50.906;7.248;2023-06-04T13:28:50;24.90;47.70
43671;DHT22;29267;50.906;7.248;2023-06-04T13:31:16;24.90;47.60
43671;DHT22;29267;50.906;7.248;2023-06-04T13:33:42;24.90;48.10
43671;DHT22;29267;50.906;7.248;2023-06-04T13:36:07;25.00;48.20
43671;DHT22;29267;50.906;7.248;2023-06-04T13:38:33;24.90;46.40
43671;DHT22;29267;50.906;7.248;2023-06-04T13:40:59;24.80;47.10
43671;DHT22;29267;50.906;7.248;2023-06-04T13:43:24;24.90;46.80
43671;DHT22;29267;50.906;7.248;2023-06-04T13:45:50;24.90;48.30
43671;DHT22;29267;50.906;7.248;2023-06-04T13:48:16;24.90;49.00
43671;DHT22;29267;50.906;7.248;2023-06-04T13:50:42;24.80;45.50
43671;DHT22;29267;50.906;7.248;2023-06-04T13:53:08;24.70;46.00
43671;DHT22;29267;50.906;7.248;2023-06-04T13:55:34;24.70;46.50
43671;DHT22;29267;50.906;7.248;2023-06-04T13:58:00;24.60;47.10
43671;DHT22;29267;50.906;7.248;2023-06-04T14:00:26;24.70;46.10
43671;DHT22;29267;50.906;7.248;2023-06-04T14:02:52;24.60;45.10
43671;DHT22;29267;50.906;7.248;2023-06-04T14:05:20;24.40;46.00
43671;DHT22;29267;50.906;7.248;2023-06-04T14:07:45;24.40;46.30
43671;DHT22;29267;50.906;7.248;2023-06-04T14:10:11;24.40;45.30
43671;DHT22;29267;50.906;7.248;2023-06-04T14:12:38;24.40;45.70
43671;DHT22;29267;50.906;7.248;2023-06-04T14:15:06;24.40;46.30
43671;DHT22;29267;50.906;7.248;2023-06-04T14:17:32;24.40;46.30
43671;DHT22;29267;50.906;7.248;2023-06-04T14:19:59;24.60;49.30
43671;DHT22;29267;50.906;7.248;2023-06-04T14:22:25;24.60;45.60
43671;DHT22;29267;50.906;7.248;2023-06-04T14:24:50;24.60;45.20
43671;DHT22;29267;50.906;7.248;2023-06-04T14:27:16;24.60;45.50
43671;DHT22;29267;50.906;7.248;2023-06-04T14:29:42;24.60;44.90
43671;DHT22;29267;50.906;7.248;2023-06-04T14:32:07;24.60;44.00
43671;DHT22;29267;50.906;7.248;2023-06-04T14:34:33;24.50;46.50
43671;DHT22;29267;50.906;7.248;2023-06-04T14:36:59;24.40;44.30
43671;DHT22;29267;50.906;7.248;2023-06-04T14:39:26;24.50;45.40
43671;DHT22;29267;50.906;7.248;2023-06-04T14:41:52;24.40;45.70
43671;DHT22;29267;50.906;7.248;2023-06-04T14:44:18;24.40;46.30
43671;DHT22;29267;50.906;7.248;2023-06-04T14:46:44;24.40;47.50
43671;DHT22;29267;50.906;7.248;2023-06-04T14:49:10;24.40;45.90
43671;DHT22;29267;50.906;7.248;2023-06-04T14:51:35;24.30;47.20
43671;DHT22;29267;50.906;7.248;2023-06-04T14:54:02;24.30;46.40
43671;DHT22;29267;50.906;7.248;2023-06-04T14:56:27;24.20;46.00
43671;DHT22;29267;50.906;7.248;2023-06-04T14:58:54;24.30;45.60
43671;DHT22;29267;50.906;7.248;2023-06-04T15:01:19;24.20;44.80
43671;DHT22;29267;50.906;7.248;2023-06-04T15:03:48;24.20;45.50
43671;DHT22;29267;50.906;7.248;2023-06-04T15:06:13;24.20;46.00
43671;DHT22;29267;50.906;7.248;2023-06-04T15:08:39;24.20;46.80
43671;DHT22;29267;50.906;7.248;2023-06-04T15:11:05;24.20;46.60
43671;DHT22;29267;50.906;7.248;2023-06-04T15:13:30;24.30;47.10
43671;DHT22;29267;50.906;7.248;2023-06-04T15:15:56;24.20;47.10
43671;DHT22;29267;50.906;7.248;2023-06-04T15:18:21;24.10;51.20
43671;DHT22;29267;50.906;7.248;2023-06-04T15:20:47;24.20;51.80
43671;DHT22;29267;50.906;7.248;2023-06-04T15:23:12;24.20;52.00
43671;DHT22;29267;50.906;7.248;2023-06-04T15:25:38;24.20;51.50
43671;DHT22;29267;50.906;7.248;2023-06-04T15:28:06;24.20;47.70
43671;DHT22;29267;50.906;7.248;2023-06-04T15:30:32;24.20;47.10
43671;DHT22;29267;50.906;7.248;2023-06-04T15:32:58;24.20;49.00
43671;DHT22;29267;50.906;7.248;2023-06-04T15:35:26;24.20;47.50